Time;durP1;ratioP1;P1;durP2;ratioP2;P2;SDS_P1;SDS_P2;PMS_P1;PMS_P2;Temp;Humidity;BMP_temperature;BMP_pressure;BME280_temperature;BME280_humidity;BME280_pressure;Samples;Min_cycle;Max_cycle;Signal;HPM_P1;HPM_P2
2022/01/14 00:01:39;;;;;;;7.93;6.17;;;0.00;99.90;;;;;;4954200;28;20199;-65
2022/01/14 00:04:37;;;;;;;5.33;4.80;;;0.00;99.90;;;;;;4955186;28;20651;-65
2022/01/14 00:07:03;;;;;;;4.45;4.05;;;0.00;99.90;;;;;;4957030;29;20503;-66
2022/01/14 00:09:31;;;;;;;6.28;5.20;;;0.00;99.90;;;;;;4957013;29;20318;-69
2022/01/14 00:12:15;;;;;;;8.48;5.22;;;0.10;99.90;;;;;;4957768;28;20672;-65
2022/01/14 00:14:44;;;;;;;13.07;6.57;;;0.00;99.90;;;;;;4942770;29;20181;-66
2022/01/14 00:17:51;;;;;;;11.50;5.45;;;0.00;99.90;;;;;;4958283;29;20263;-66
2022/01/14 00:20:38;;;;;;;7.72;5.57;;;-0.10;99.90;;;;;;4949907;29;20262;-66
2022/01/14 00:23:06;;;;;;;6.38;5.78;;;-0.20;99.90;;;;;;4957583;28;20228;-67
2022/01/14 00:33:30;;;;;;;8.80;5.63;;;-0.20;99.90;;;;;;4958367;28;20304;-67
2022/01/14 00:35:56;;;;;;;11.77;5.90;;;-0.20;99.90;;;;;;4956637;29;20207;-66
2022/01/14 00:38:22;;;;;;;4.60;4.20;;;-0.20;99.90;;;;;;4957806;29;20614;-65
2022/01/14 00:40:48;;;;;;;13.33;5.13;;;-0.20;99.90;;;;;;4957720;29;20440;-66
2022/01/14 00:43:15;;;;;;;11.03;4.47;;;-0.10;99.90;;;;;;4957401;28;20212;-66
2022/01/14 00:45:42;;;;;;;4.57;4.03;;;-0.10;99.90;;;;;;4956553;29;20161;-65
2022/01/14 00:48:08;;;;;;;7.63;3.92;;;-0.20;99.90;;;;;;4957697;29;20200;-65
2022/01/14 00:50:34;;;;;;;9.07;4.97;;;-0.10;99.90;;;;;;4957523;29;20169;-67
2022/01/14 00:53:03;;;;;;;6.18;5.57;;;-0.10;99.90;;;;;;4952572;28;20449;-66
2022/01/14 00:55:42;;;;;;;5.25;4.80;;;-0.10;99.90;;;;;;4938288;29;20173;-67
2022/01/14 01:00:52;;;;;;;9.02;4.43;;;-0.20;99.90;;;;;;4938433;29;20536;-67
2022/01/14 01:03:17;;;;;;;9.23;4.77;;;-0.20;99.90;;;;;;4936521;29;20196;-66
2022/01/14 01:05:43;;;;;;;5.40;4.90;;;-0.20;99.90;;;;;;4938229;29;20255;-65
2022/01/14 01:08:12;;;;;;;4.50;3.73;;;-0.20;99.90;;;;;;4938184;29;20185;-66
2022/01/14 01:10:48;;;;;;;7.88;5.68;;;-0.20;99.90;;;;;;4938291;29;20224;-66
2022/01/14 01:13:29;;;;;;;12.80;6.45;;;-0.20;99.90;;;;;;4936774;29;20193;-66
2022/01/14 01:15:56;;;;;;;10.20;5.28;;;-0.20;99.90;;;;;;4936731;29;20188;-66
2022/01/14 01:18:22;;;;;;;5.63;4.57;;;-0.10;99.90;;;;;;4936729;29;20206;-66
2022/01/14 01:20:49;;;;;;;4.55;4.25;;;-0.20;99.90;;;;;;4938014;29;20232;-66
2022/01/14 01:23:15;;;;;;;8.23;4.35;;;-0.20;99.90;;;;;;4936248;29;20212;-65
2022/01/14 01:25:46;;;;;;;8.38;6.78;;;-0.20;99.90;;;;;;4937772;29;20244;-65
2022/01/14 01:28:13;;;;;;;5.97;5.25;;;-0.20;99.90;;;;;;4937878;29;20204;-66
2022/01/14 01:31:03;;;;;;;8.73;6.72;;;-0.10;99.90;;;;;;4937741;29;20556;-68
2022/01/14 01:33:29;;;;;;;9.35;6.43;;;-0.10;99.90;;;;;;4937556;29;20266;-65
2022/01/14 01:35:56;;;;;;;5.20;4.90;;;-0.20;99.90;;;;;;4937800;29;20205;-65
2022/01/14 01:38:22;;;;;;;6.72;6.05;;;-0.20;99.90;;;;;;4937631;29;20197;-65
2022/01/14 01:40:49;;;;;;;6.50;5.63;;;-0.20;99.90;;;;;;4937568;29;20503;-66
2022/01/14 01:43:16;;;;;;;8.00;7.18;;;-0.20;99.90;;;;;;4936924;29;20214;-65
2022/01/14 01:45:47;;;;;;;7.70;7.00;;;-0.10;99.90;;;;;;4937362;29;20194;-66
2022/01/14 01:48:12;;;;;;;10.05;7.10;;;-0.20;99.90;;;;;;4937592;29;20172;-66
2022/01/14 01:50:39;;;;;;;10.10;7.40;;;-0.20;99.90;;;;;;4936219;29;20268;-65
2022/01/14 01:53:05;;;;;;;12.00;8.38;;;-0.20;99.90;;;;;;4949394;29;20198;-66
2022/01/14 01:55:30;;;;;;;7.72;5.47;;;-0.20;99.90;;;;;;4956397;29;20623;-65
2022/01/14 01:57:56;;;;;;;8.27;6.87;;;-0.20;99.90;;;;;;4955306;29;20184;-67
2022/01/14 02:00:25;;;;;;;5.80;5.23;;;-0.10;99.90;;;;;;4955207;29;20588;-66
2022/01/14 02:02:53;;;;;;;6.53;4.43;;;-0.10;99.90;;;;;;4955871;28;20199;-66
2022/01/14 02:05:20;;;;;;;6.65;3.92;;;-0.10;99.90;;;;;;4956449;29;20176;-66
2022/01/14 02:07:45;;;;;;;16.05;6.70;;;-0.10;99.90;;;;;;4956147;29;20169;-66
2022/01/14 02:10:11;;;;;;;6.80;6.10;;;-0.10;99.90;;;;;;4956457;29;20653;-66
2022/01/14 02:12:45;;;;;;;6.27;5.10;;;-0.20;99.90;;;;;;4955844;28;20195;-67
2022/01/14 02:15:24;;;;;;;4.22;3.97;;;-0.20;99.90;;;;;;4956391;29;20413;-67
2022/01/14 02:23:06;;;;;;;8.10;4.93;;;-0.20;99.90;;;;;;4955822;28;20195;-66
2022/01/14 02:25:32;;;;;;;6.93;5.15;;;-0.30;99.90;;;;;;4955837;29;20180;-65
2022/01/14 02:28:01;;;;;;;5.40;4.20;;;-0.30;99.90;;;;;;4955487;28;20165;-66
2022/01/14 02:30:29;;;;;;;10.13;6.93;;;-0.20;99.90;;;;;;4954478;29;20200;-65
2022/01/14 02:32:55;;;;;;;7.75;6.25;;;-0.20;99.90;;;;;;4955397;28;20275;-66
2022/01/14 02:35:21;;;;;;;6.80;3.63;;;-0.20;99.90;;;;;;4955835;29;20224;-65
2022/01/14 02:37:47;;;;;;;7.00;5.67;;;-0.10;99.90;;;;;;4954429;29;20178;-65
2022/01/14 02:40:13;;;;;;;8.53;5.10;;;-0.10;99.90;;;;;;4954480;29;20457;-66
2022/01/14 02:42:39;;;;;;;8.15;7.13;;;-0.10;99.90;;;;;;4953976;28;20495;-65
2022/01/14 02:45:08;;;;;;;5.20;3.05;;;-0.20;99.90;;;;;;4955645;29;20176;-65
2022/01/14 02:47:34;;;;;;;7.07;4.40;;;-0.20;99.90;;;;;;4954300;29;20173;-65
2022/01/14 02:50:00;;;;;;;4.63;4.22;;;-0.30;99.90;;;;;;4955803;29;20177;-65
2022/01/14 02:53:14;;;;;;;7.25;4.93;;;-0.40;99.90;;;;;;4955102;28;20197;-65
2022/01/14 02:55:18;;;;;;;9.10;4.93;;;-0.40;99.90;;;;;;4954726;28;20198;-67
2022/01/14 02:57:46;;;;;;;5.22;4.72;;;-0.50;99.90;;;;;;4955612;29;20173;-65
2022/01/14 03:00:13;;;;;;;7.15;4.55;;;-0.50;99.90;;;;;;4954038;29;20208;-65
2022/01/14 03:02:43;;;;;;;6.82;6.25;;;-0.50;99.90;;;;;;4955030;29;20190;-64
2022/01/14 03:05:09;;;;;;;4.05;3.78;;;-0.50;99.90;;;;;;4954076;29;20172;-66
2022/01/14 03:07:39;;;;;;;6.72;4.88;;;-0.40;99.90;;;;;;4954117;29;20190;-65
2022/01/14 03:10:07;;;;;;;4.43;4.00;;;-0.50;99.90;;;;;;4955479;29;20172;-65
2022/01/14 03:12:33;;;;;;;7.22;5.18;;;-0.50;99.90;;;;;;4954824;28;20209;-65
2022/01/14 03:14:58;;;;;;;6.55;4.18;;;-0.50;99.90;;;;;;4955254;29;20584;-65
2022/01/14 03:17:24;;;;;;;5.23;4.80;;;-0.50;99.90;;;;;;4955301;29;20261;-66
2022/01/14 03:19:50;;;;;;;6.07;5.43;;;-0.50;99.90;;;;;;4955422;29;20292;-65
2022/01/14 03:22:28;;;;;;;8.53;7.40;;;-0.60;99.90;;;;;;4954720;29;20196;-66
2022/01/14 03:27:20;;;;;;;6.30;4.77;;;-0.60;99.90;;;;;;4955298;29;20165;-65
2022/01/14 03:29:46;;;;;;;13.02;7.20;;;-0.60;99.90;;;;;;4955165;29;20173;-65
2022/01/14 03:32:12;;;;;;;6.88;6.28;;;-0.60;99.90;;;;;;4954862;29;20743;-66
2022/01/14 03:34:38;;;;;;;7.70;5.67;;;-0.60;99.90;;;;;;4953701;29;20260;-65
2022/01/14 03:37:04;;;;;;;8.90;7.87;;;-0.60;99.90;;;;;;4954053;29;20534;-65
2022/01/14 03:39:30;;;;;;;6.15;5.75;;;-0.50;99.90;;;;;;4956052;28;20208;-65
2022/01/14 03:41:55;;;;;;;5.87;5.37;;;-0.60;99.90;;;;;;4956996;29;20251;-64
2022/01/14 03:44:21;;;;;;;12.40;6.77;;;-0.60;99.90;;;;;;4958998;29;20706;-66
2022/01/14 03:46:47;;;;;;;6.27;5.17;;;-0.50;99.90;;;;;;4958752;29;20169;-65
2022/01/14 03:49:13;;;;;;;6.20;4.93;;;-0.60;99.90;;;;;;4958818;29;20319;-66
2022/01/14 03:51:39;;;;;;;8.43;5.50;;;-0.50;99.90;;;;;;4958268;29;20194;-66
2022/01/14 03:54:05;;;;;;;5.43;4.93;;;-0.60;99.90;;;;;;4957382;29;20996;-65
2022/01/14 03:56:32;;;;;;;8.23;6.28;;;-0.50;99.90;;;;;;4958673;29;20206;-65
2022/01/14 03:58:57;;;;;;;8.70;5.85;;;-0.50;99.90;;;;;;4958501;29;20331;-65
2022/01/14 04:01:23;;;;;;;6.40;4.50;;;-0.50;99.90;;;;;;4957989;28;20252;-66
2022/01/14 04:03:50;;;;;;;4.37;4.03;;;-0.60;99.90;;;;;;4958631;29;20396;-66
2022/01/14 04:06:17;;;;;;;9.05;6.47;;;-0.60;99.90;;;;;;4958289;29;20178;-65
2022/01/14 04:08:43;;;;;;;4.97;4.25;;;-0.60;99.90;;;;;;4958281;29;20179;-66
2022/01/14 04:11:10;;;;;;;7.07;4.68;;;-0.60;99.90;;;;;;4956700;29;20663;-65
2022/01/14 04:16:13;;;;;;;5.25;3.80;;;-0.70;99.90;;;;;;4958190;29;20175;-65
2022/01/14 04:18:39;;;;;;;5.32;4.82;;;-0.70;99.90;;;;;;4958232;29;20225;-65
2022/01/14 04:21:05;;;;;;;7.32;3.60;;;-0.70;99.90;;;;;;4957742;29;20180;-69
2022/01/14 04:23:31;;;;;;;7.03;6.18;;;-0.70;99.90;;;;;;4956911;28;20190;-64
2022/01/14 04:25:57;;;;;;;6.22;5.63;;;-0.70;99.90;;;;;;4956892;29;20264;-65
2022/01/14 04:28:25;;;;;;;13.37;6.43;;;-0.80;99.90;;;;;;4956936;29;20184;-65
2022/01/14 04:30:54;;;;;;;4.60;4.15;;;-0.80;99.90;;;;;;4958104;29;20944;-67
2022/01/14 04:33:25;;;;;;;8.35;6.43;;;-0.70;99.90;;;;;;4956163;28;20193;-66
2022/01/14 04:35:52;;;;;;;8.90;6.03;;;-0.80;99.90;;;;;;4956446;29;20171;-66
2022/01/14 04:38:18;;;;;;;11.38;8.30;;;-0.80;99.90;;;;;;4957828;29;20180;-66
2022/01/14 04:40:43;;;;;;;6.43;5.73;;;-0.70;99.90;;;;;;4956582;29;20173;-64
2022/01/14 04:43:09;;;;;;;4.87;4.33;;;-0.70;99.90;;;;;;4957201;28;20204;-66
2022/01/14 04:48:05;;;;;;;4.50;3.63;;;-0.60;99.90;;;;;;4958033;29;20410;-64
2022/01/14 04:50:31;;;;;;;6.97;6.22;;;-0.60;99.90;;;;;;4955815;28;20415;-64
2022/01/14 04:52:57;;;;;;;5.72;5.30;;;-0.60;99.90;;;;;;4957151;28;20192;-64
2022/01/14 04:55:25;;;;;;;9.60;6.77;;;-0.60;99.90;;;;;;4957398;29;20173;-65
2022/01/14 04:57:52;;;;;;;8.00;6.03;;;-0.60;99.90;;;;;;4957555;29;20173;-64
2022/01/14 05:00:23;;;;;;;6.88;6.30;;;-0.60;99.90;;;;;;4957123;28;20244;-65
2022/01/14 05:02:52;;;;;;;5.97;5.32;;;-0.60;99.90;;;;;;4957193;29;20195;-65
2022/01/14 05:05:20;;;;;;;5.78;5.38;;;-0.60;99.90;;;;;;4957299;29;20228;-66
2022/01/14 05:07:49;;;;;;;6.60;4.03;;;-0.70;99.90;;;;;;4955916;29;20257;-65
2022/01/14 05:12:57;;;;;;;13.32;5.28;;;-0.70;99.90;;;;;;4956755;29;20250;-65
2022/01/14 05:15:22;;;;;;;6.07;4.95;;;-0.80;99.90;;;;;;4955737;29;20180;-66
2022/01/14 05:17:50;;;;;;;9.07;5.63;;;-0.70;99.90;;;;;;4957124;29;20717;-66
2022/01/14 05:20:16;;;;;;;6.60;5.05;;;-0.70;99.90;;;;;;4957549;29;20258;-64
2022/01/14 05:22:43;;;;;;;4.07;3.75;;;-0.70;99.90;;;;;;4956507;29;20203;-65
2022/01/14 05:25:12;;;;;;;11.05;6.10;;;-0.70;99.90;;;;;;4955856;29;20542;-65
2022/01/14 05:27:38;;;;;;;7.97;5.45;;;-0.80;99.90;;;;;;4956812;29;20252;-66
2022/01/14 05:30:05;;;;;;;9.37;6.30;;;-0.70;99.90;;;;;;4957301;29;20221;-65
2022/01/14 05:32:31;;;;;;;9.10;6.88;;;-0.70;99.90;;;;;;4956534;29;20284;-64
2022/01/14 05:35:00;;;;;;;5.80;5.47;;;-0.70;99.90;;;;;;4955858;29;20268;-65
2022/01/14 05:37:26;;;;;;;10.15;4.97;;;-0.70;99.90;;;;;;4956881;29;20182;-65
2022/01/14 05:39:52;;;;;;;4.30;3.97;;;-0.70;99.90;;;;;;4956674;29;20197;-65
2022/01/14 05:42:17;;;;;;;4.90;4.40;;;-0.70;99.90;;;;;;4956013;29;20974;-65
2022/01/14 05:44:44;;;;;;;5.60;4.30;;;-0.70;99.90;;;;;;4956583;29;20404;-65
2022/01/14 05:47:09;;;;;;;7.72;5.43;;;-0.70;99.90;;;;;;4956502;29;20239;-65
2022/01/14 05:49:35;;;;;;;6.03;4.80;;;-0.70;99.90;;;;;;4955152;29;20264;-64
2022/01/14 05:52:01;;;;;;;7.90;5.50;;;-0.70;99.90;;;;;;4954611;29;20192;-65
2022/01/14 05:54:27;;;;;;;9.45;6.57;;;-0.60;99.90;;;;;;4956214;29;20412;-65
2022/01/14 05:56:53;;;;;;;6.63;5.40;;;-0.70;99.90;;;;;;4956200;29;20228;-63
2022/01/14 05:59:19;;;;;;;6.50;5.93;;;-0.70;99.90;;;;;;4954275;29;20480;-64
2022/01/14 06:01:45;;;;;;;10.23;5.13;;;-0.70;99.90;;;;;;4955172;28;20235;-65
2022/01/14 06:04:11;;;;;;;5.88;5.18;;;-0.70;99.90;;;;;;4954688;29;20974;-65
2022/01/14 06:06:37;;;;;;;6.53;5.70;;;-0.70;99.90;;;;;;4956027;29;20258;-65
2022/01/14 06:09:04;;;;;;;7.57;6.83;;;-0.70;99.90;;;;;;4956071;29;20423;-65
2022/01/14 06:11:30;;;;;;;5.32;3.88;;;-0.80;99.90;;;;;;4955540;28;20423;-65
2022/01/14 06:13:57;;;;;;;17.90;5.50;;;-0.80;99.90;;;;;;4954585;29;20183;-64
2022/01/14 06:16:23;;;;;;;7.00;6.50;;;-0.90;99.90;;;;;;4956087;29;20401;-65
2022/01/14 06:18:49;;;;;;;8.10;6.10;;;-0.90;99.90;;;;;;4955712;29;20597;-65
2022/01/14 06:21:15;;;;;;;5.73;5.20;;;-0.90;99.90;;;;;;4954150;29;20524;-64
2022/01/14 06:23:41;;;;;;;8.93;5.33;;;-0.80;99.90;;;;;;4955665;28;20189;-65
2022/01/14 06:26:07;;;;;;;8.35;5.57;;;-0.90;99.90;;;;;;4955711;29;20403;-67
2022/01/14 06:28:33;;;;;;;7.60;5.07;;;-0.90;99.90;;;;;;4955989;29;20595;-65
2022/01/14 06:30:59;;;;;;;5.47;5.07;;;-0.90;99.90;;;;;;4954324;29;20197;-67
2022/01/14 06:33:24;;;;;;;6.60;6.00;;;-0.90;99.90;;;;;;4955480;28;20697;-65
2022/01/14 06:35:50;;;;;;;9.10;4.90;;;-0.90;99.90;;;;;;4954427;29;20179;-66
2022/01/14 06:38:18;;;;;;;4.23;3.93;;;-0.80;99.90;;;;;;4955421;29;20606;-65
2022/01/14 06:40:46;;;;;;;23.58;5.65;;;-0.80;99.90;;;;;;4955556;29;20747;-66
2022/01/14 06:43:16;;;;;;;5.60;5.13;;;-0.80;99.90;;;;;;4955006;28;20200;-66
2022/01/14 06:45:42;;;;;;;8.75;7.63;;;-0.80;99.90;;;;;;4955331;29;20171;-66
2022/01/14 06:48:09;;;;;;;8.25;4.78;;;-0.80;99.90;;;;;;4955499;29;20198;-66
2022/01/14 06:50:36;;;;;;;8.80;6.55;;;-0.80;99.90;;;;;;4955342;29;20173;-65
2022/01/14 06:53:02;;;;;;;5.88;5.50;;;-0.70;99.90;;;;;;4954894;28;20206;-66
2022/01/14 06:55:27;;;;;;;6.43;5.85;;;-0.70;99.90;;;;;;4955204;29;20549;-66
2022/01/14 06:57:53;;;;;;;7.93;5.10;;;-0.70;99.90;;;;;;4955599;29;20176;-66
2022/01/14 07:00:19;;;;;;;9.77;6.77;;;-0.60;99.90;;;;;;4955371;29;20261;-65
2022/01/14 07:02:45;;;;;;;4.90;4.60;;;-0.70;99.90;;;;;;4954654;29;20191;-66
2022/01/14 07:05:12;;;;;;;9.13;6.43;;;-0.70;99.90;;;;;;4954197;29;20227;-65
2022/01/14 07:07:39;;;;;;;11.48;6.10;;;-0.70;99.90;;;;;;4956270;29;20210;-65
2022/01/14 07:10:06;;;;;;;7.70;6.72;;;-0.60;99.90;;;;;;4956282;29;20181;-66
2022/01/14 07:12:35;;;;;;;7.28;6.70;;;-0.70;99.90;;;;;;4953164;29;20226;-66
2022/01/14 07:15:01;;;;;;;7.07;6.20;;;-0.70;99.90;;;;;;4957752;28;20170;-66
2022/01/14 07:17:27;;;;;;;9.90;7.47;;;-0.70;99.90;;;;;;4958471;29;20236;-66
2022/01/14 07:19:57;;;;;;;6.22;5.63;;;-0.70;99.90;;;;;;4958612;29;20674;-65
2022/01/14 07:22:22;;;;;;;11.65;6.78;;;-0.70;99.90;;;;;;4958551;29;20191;-66
2022/01/14 07:24:49;;;;;;;9.00;5.83;;;-0.60;99.90;;;;;;4958929;29;20165;-66
2022/01/14 07:27:15;;;;;;;6.88;5.55;;;-0.60;99.90;;;;;;4956958;29;20212;-67
2022/01/14 07:29:41;;;;;;;6.40;5.53;;;-0.60;99.90;;;;;;4956727;29;20227;-67
2022/01/14 07:32:07;;;;;;;5.60;4.80;;;-0.60;99.90;;;;;;4956726;29;20201;-66
2022/01/14 07:34:34;;;;;;;14.93;8.13;;;-0.50;99.90;;;;;;4957433;29;20176;-66
2022/01/14 07:36:59;;;;;;;6.78;6.18;;;-0.50;99.90;;;;;;4957353;29;20181;-67
2022/01/14 07:39:26;;;;;;;11.90;7.00;;;-0.40;99.90;;;;;;4957213;29;20207;-67
2022/01/14 07:41:52;;;;;;;7.90;6.18;;;-0.20;99.90;;;;;;4957698;29;20436;-66
2022/01/14 07:44:18;;;;;;;13.02;7.40;;;0.00;99.90;;;;;;4958704;29;20180;-66
2022/01/14 07:46:44;;;;;;;12.13;7.05;;;0.40;99.90;;;;;;4959035;29;20173;-67
2022/01/14 07:49:10;;;;;;;11.93;10.70;;;0.70;99.90;;;;;;4959101;29;20231;-68
2022/01/14 07:51:36;;;;;;;18.20;10.50;;;1.00;99.90;;;;;;4958057;28;20200;-66
2022/01/14 07:54:05;;;;;;;8.13;6.87;;;1.20;99.90;;;;;;4958649;29;20409;-65
2022/01/14 07:56:52;;;;;;;9.05;8.20;;;1.40;99.90;;;;;;4958704;29;20197;-66
2022/01/14 07:59:21;;;;;;;10.77;7.35;;;1.60;99.90;;;;;;4958606;28;20251;-66
2022/01/14 08:01:48;;;;;;;11.82;7.95;;;1.60;99.90;;;;;;4957938;28;20222;-66
2022/01/14 08:04:15;;;;;;;12.65;9.18;;;1.50;99.90;;;;;;4958385;29;20172;-66
2022/01/14 08:06:46;;;;;;;12.82;9.27;;;1.50;99.90;;;;;;4958365;29;20204;-67
2022/01/14 08:09:13;;;;;;;16.38;6.63;;;1.40;99.90;;;;;;4958447;29;20179;-68
2022/01/14 08:11:38;;;;;;;14.32;9.10;;;1.40;99.90;;;;;;4957792;28;20665;-67
2022/01/14 08:14:04;;;;;;;12.10;6.83;;;1.40;99.90;;;;;;4958274;29;20259;-67
2022/01/14 08:16:30;;;;;;;7.60;6.03;;;1.40;99.90;;;;;;4958071;29;20196;-67
2022/01/14 08:18:55;;;;;;;10.40;6.10;;;1.40;99.90;;;;;;4956829;29;20197;-67
2022/01/14 08:21:21;;;;;;;16.20;7.60;;;1.40;99.90;;;;;;4957886;28;20169;-67
2022/01/14 08:23:47;;;;;;;9.47;8.43;;;1.50;99.90;;;;;;4958204;29;20176;-67
2022/01/14 08:26:12;;;;;;;11.10;6.80;;;1.80;99.90;;;;;;4957254;28;20304;-66
2022/01/14 08:28:38;;;;;;;13.47;10.50;;;2.10;99.90;;;;;;4958108;29;20165;-67
2022/01/14 08:31:04;;;;;;;11.60;7.93;;;2.30;99.90;;;;;;4956212;29;20184;-67
2022/01/14 08:33:29;;;;;;;10.70;7.47;;;2.60;99.90;;;;;;4956602;28;20204;-67
2022/01/14 08:35:55;;;;;;;9.97;8.33;;;3.00;99.90;;;;;;4957649;29;20178;-67
2022/01/14 08:38:21;;;;;;;7.67;6.97;;;3.70;99.90;;;;;;4958148;29;20195;-65
2022/01/14 08:40:47;;;;;;;7.50;6.80;;;4.50;99.90;;;;;;4958118;29;20173;-65
2022/01/14 08:43:13;;;;;;;11.10;7.95;;;5.30;99.90;;;;;;4957339;28;20456;-67
2022/01/14 08:45:39;;;;;;;11.30;8.20;;;6.10;99.90;;;;;;4956443;29;20179;-67
2022/01/14 08:48:05;;;;;;;9.00;8.10;;;6.90;99.90;;;;;;4957690;29;20170;-67
2022/01/14 08:50:35;;;;;;;12.53;8.00;;;7.50;99.90;;;;;;4957787;29;20585;-66
2022/01/14 08:53:06;;;;;;;8.77;7.43;;;8.10;99.90;;;;;;4957025;28;20439;-67
2022/01/14 08:55:31;;;;;;;9.77;8.77;;;8.60;99.90;;;;;;4957490;29;20510;-67
2022/01/14 08:57:57;;;;;;;12.80;9.47;;;9.00;99.90;;;;;;4957620;29;20495;-67
2022/01/14 09:00:24;;;;;;;12.33;7.87;;;9.40;99.90;;;;;;4957482;29;20487;-67
2022/01/14 09:02:51;;;;;;;9.30;8.13;;;9.60;99.50;;;;;;4956809;29;20296;-66
2022/01/14 09:05:17;;;;;;;12.23;9.63;;;9.80;98.80;;;;;;4956985;29;20424;-66
2022/01/14 09:07:43;;;;;;;9.60;7.70;;;10.00;97.20;;;;;;4957262;29;20763;-67
2022/01/14 09:10:10;;;;;;;10.30;7.60;;;10.30;95.90;;;;;;4957222;29;20377;-67
2022/01/14 09:12:36;;;;;;;11.00;7.63;;;10.60;95.70;;;;;;4956748;28;20195;-66
2022/01/14 09:15:03;;;;;;;8.00;7.30;;;11.00;95.00;;;;;;4957250;28;20449;-66
2022/01/14 09:17:29;;;;;;;10.80;8.60;;;11.40;94.90;;;;;;4957303;29;20585;-66
2022/01/14 09:19:56;;;;;;;8.53;7.70;;;11.80;93.30;;;;;;4956978;29;20821;-67
2022/01/14 09:22:22;;;;;;;8.97;7.80;;;12.00;92.90;;;;;;4956473;29;20431;-67
2022/01/14 09:24:48;;;;;;;8.60;7.43;;;12.20;92.20;;;;;;4957094;29;20380;-67
2022/01/14 09:27:15;;;;;;;10.60;8.40;;;12.50;91.50;;;;;;4956890;29;20409;-67
2022/01/14 09:29:43;;;;;;;9.27;8.27;;;12.80;90.60;;;;;;4955508;29;20515;-67
2022/01/14 09:32:10;;;;;;;13.40;8.60;;;12.70;90.70;;;;;;4956098;29;20989;-67
2022/01/14 09:34:38;;;;;;;9.40;7.20;;;12.60;90.80;;;;;;4956789;29;20415;-67
2022/01/14 09:37:05;;;;;;;10.17;8.47;;;12.50;90.00;;;;;;4956820;28;20437;-67
2022/01/14 09:39:39;;;;;;;9.47;8.40;;;12.20;90.80;;;;;;4986495;28;20523;-67
2022/01/14 09:42:06;;;;;;;12.33;8.83;;;12.30;90.40;;;;;;4986378;28;20460;-67
2022/01/14 09:44:33;;;;;;;9.50;8.50;;;12.30;90.10;;;;;;4956339;29;20980;-67
2022/01/14 09:47:20;;;;;;;8.60;7.90;;;12.30;90.40;;;;;;4981856;28;20516;-67
2022/01/14 09:49:49;;;;;;;9.23;8.20;;;12.60;87.80;;;;;;4956497;29;20445;-67
2022/01/14 09:52:16;;;;;;;8.63;7.73;;;12.70;88.40;;;;;;4956105;29;20436;-67
2022/01/14 09:54:43;;;;;;;9.17;7.37;;;13.00;86.70;;;;;;4956366;29;20169;-67
2022/01/14 09:57:11;;;;;;;9.43;8.50;;;13.10;86.70;;;;;;4956430;29;20444;-67
2022/01/14 09:59:56;;;;;;;11.00;8.80;;;13.30;84.90;;;;;;4956221;29;20547;-67
2022/01/14 10:02:31;;;;;;;11.40;8.43;;;13.20;83.80;;;;;;4955764;28;20432;-67
2022/01/14 10:04:58;;;;;;;12.90;8.67;;;12.80;84.70;;;;;;4956503;29;20411;-67
2022/01/14 10:07:23;;;;;;;9.87;8.87;;;12.60;86.00;;;;;;4956002;29;20470;-67
2022/01/14 10:09:56;;;;;;;9.50;8.70;;;12.40;86.10;;;;;;4956032;29;20522;-67
2022/01/14 10:12:22;;;;;;;9.63;8.67;;;12.10;85.60;;;;;;4955626;28;20197;-67
2022/01/14 10:14:58;;;;;;;9.63;8.23;;;12.00;86.70;;;;;;4956001;29;20409;-67
2022/01/14 10:17:25;;;;;;;9.80;8.33;;;12.10;86.80;;;;;;4955885;29;20386;-67
2022/01/14 10:20:03;;;;;;;12.17;9.70;;;12.10;86.90;;;;;;4956127;29;20522;-67
2022/01/14 10:22:47;;;;;;;9.80;8.80;;;12.20;87.10;;;;;;4955325;28;20843;-67
2022/01/14 10:25:26;;;;;;;10.40;8.70;;;12.40;87.30;;;;;;4955963;29;20397;-67
2022/01/14 10:27:54;;;;;;;11.67;9.27;;;12.50;86.10;;;;;;4955789;28;20857;-66
2022/01/14 10:30:27;;;;;;;10.80;9.43;;;12.70;86.80;;;;;;4955530;29;20391;-66
2022/01/14 10:33:07;;;;;;;8.53;7.70;;;12.80;86.70;;;;;;4954022;28;20448;-66
2022/01/14 10:35:45;;;;;;;9.80;8.80;;;12.90;86.30;;;;;;4955413;29;20404;-68
2022/01/14 10:38:21;;;;;;;8.70;7.90;;;13.00;86.10;;;;;;4955370;29;20417;-67
2022/01/14 10:40:52;;;;;;;11.30;8.63;;;13.00;86.60;;;;;;4955210;29;20532;-67
2022/01/14 10:43:48;;;;;;;11.43;10.30;;;12.90;85.90;;;;;;4955314;28;20538;-67
2022/01/14 10:46:14;;;;;;;9.80;8.67;;;12.80;85.80;;;;;;4924319;29;20508;-67
2022/01/14 10:48:46;;;;;;;8.40;7.60;;;12.50;84.70;;;;;;4953976;28;20448;-67
2022/01/14 10:51:14;;;;;;;11.23;8.63;;;12.30;86.20;;;;;;4955107;28;20176;-67
2022/01/14 10:53:43;;;;;;;9.33;8.53;;;12.20;87.00;;;;;;4955431;28;20779;-67
2022/01/14 10:56:17;;;;;;;13.67;9.23;;;12.20;87.40;;;;;;4955406;29;20379;-67
2022/01/14 10:59:05;;;;;;;12.33;9.27;;;12.20;86.80;;;;;;4955503;29;20552;-67
2022/01/14 11:01:32;;;;;;;11.43;8.10;;;12.00;86.80;;;;;;4955137;29;20430;-67
2022/01/14 11:04:06;;;;;;;9.40;8.13;;;11.80;87.10;;;;;;4955444;29;20380;-67
2022/01/14 11:06:50;;;;;;;9.60;8.70;;;11.60;88.30;;;;;;4954090;29;20789;-66
2022/01/14 11:09:22;;;;;;;12.73;7.70;;;11.50;88.70;;;;;;4955213;29;20445;-66
2022/01/14 11:11:49;;;;;;;9.17;8.30;;;11.50;88.90;;;;;;4954940;29;20501;-66
2022/01/14 11:14:15;;;;;;;11.73;8.40;;;11.50;89.40;;;;;;4955333;29;20388;-66
2022/01/14 11:16:42;;;;;;;10.63;9.40;;;11.60;89.30;;;;;;4955320;28;20429;-66
2022/01/14 11:19:09;;;;;;;8.70;7.73;;;11.80;89.10;;;;;;4953924;29;20455;-66
2022/01/14 11:24:37;;;;;;;10.37;7.70;;;11.20;88.10;;;;;;4955416;29;20896;-66
2022/01/14 11:27:22;;;;;;;10.53;7.93;;;10.50;88.80;;;;;;4955407;28;20397;-66
2022/01/14 11:29:48;;;;;;;13.40;8.40;;;9.80;90.90;;;;;;4955274;29;20422;-66
2022/01/14 11:32:16;;;;;;;14.03;10.70;;;9.30;91.50;;;;;;4954836;29;20410;-66
2022/01/14 11:34:47;;;;;;;15.63;10.23;;;8.70;92.80;;;;;;4955198;28;20504;-66
2022/01/14 11:37:33;;;;;;;10.75;8.55;;;8.20;93.70;;;;;;4955024;28;20180;-67
2022/01/14 11:40:03;;;;;;;11.18;6.97;;;7.90;94.40;;;;;;4955268;29;20193;-67
2022/01/14 11:42:41;;;;;;;13.75;7.60;;;7.60;94.70;;;;;;4954544;29;20219;-65
2022/01/14 11:45:08;;;;;;;8.88;8.00;;;7.50;95.10;;;;;;4954959;29;20169;-68
2022/01/14 11:47:48;;;;;;;9.30;6.90;;;7.30;95.80;;;;;;4955075;29;20173;-66
2022/01/14 11:50:25;;;;;;;8.02;7.32;;;7.10;96.20;;;;;;4953990;29;20247;-67
2022/01/14 11:53:56;;;;;;;12.30;7.05;;;7.00;96.50;;;;;;4928910;29;20616;-67
2022/01/14 11:56:38;;;;;;;9.27;7.68;;;6.80;97.30;;;;;;4912240;29;20197;-65
2022/01/14 11:59:22;;;;;;;8.95;6.68;;;6.80;97.40;;;;;;4935369;29;20193;-66
2022/01/14 12:03:33;;;;;;;8.20;6.38;;;6.90;98.20;;;;;;5131824;27;20336;-69
2022/01/14 12:06:07;;;;;;;8.00;7.30;;;6.90;97.70;;;;;;5131759;27;20208;-68
2022/01/14 12:08:52;;;;;;;12.57;9.38;;;6.80;98.00;;;;;;5131825;27;20215;-66
2022/01/14 12:11:24;;;;;;;9.55;7.47;;;6.90;98.00;;;;;;5130469;27;20192;-66
2022/01/14 12:14:11;;;;;;;12.95;6.10;;;6.90;98.60;;;;;;5131819;27;20623;-65
2022/01/14 12:17:00;;;;;;;8.52;6.32;;;7.60;98.70;;;;;;5146999;27;20184;-67
2022/01/14 12:19:28;;;;;;;8.07;7.28;;;7.60;98.40;;;;;;5131609;27;20256;-65
2022/01/14 12:21:56;;;;;;;14.60;8.30;;;7.00;98.40;;;;;;5130954;27;20199;-65
2022/01/14 12:24:38;;;;;;;8.23;6.90;;;7.00;98.40;;;;;;5131384;28;20174;-68
2022/01/14 12:27:04;;;;;;;10.80;6.78;;;6.90;98.40;;;;;;5131257;27;20291;-64
2022/01/14 12:30:00;;;;;;;7.17;6.03;;;6.90;98.50;;;;;;5130089;28;20190;-66
2022/01/14 12:32:29;;;;;;;11.38;7.03;;;6.90;98.50;;;;;;5131167;27;20858;-64
2022/01/14 12:34:54;;;;;;;10.80;6.75;;;6.90;98.60;;;;;;5131215;27;20239;-70
2022/01/14 12:37:46;;;;;;;9.97;5.80;;;7.00;98.40;;;;;;5131413;27;20242;-69
2022/01/14 12:40:13;;;;;;;7.53;6.13;;;7.00;98.20;;;;;;5131355;27;20163;-68
2022/01/14 12:42:40;;;;;;;7.63;6.50;;;7.00;98.40;;;;;;5130334;27;20212;-69
2022/01/14 12:45:28;;;;;;;9.35;7.32;;;7.00;98.50;;;;;;5131018;27;20158;-67
2022/01/14 12:48:21;;;;;;;7.60;6.70;;;7.00;98.50;;;;;;5131284;27;20237;-65
2022/01/14 12:50:48;;;;;;;13.82;5.60;;;7.10;98.40;;;;;;5130926;27;20165;-67
2022/01/14 12:53:18;;;;;;;7.32;6.40;;;7.10;98.30;;;;;;5130208;27;20603;-66
2022/01/14 12:55:44;;;;;;;5.47;4.88;;;7.20;98.30;;;;;;5129534;27;20178;-66
2022/01/14 12:58:11;;;;;;;10.45;6.90;;;7.30;98.40;;;;;;5130884;27;20540;-65
2022/01/14 13:00:39;;;;;;;9.25;6.70;;;7.40;98.30;;;;;;5130725;28;20235;-65
2022/01/14 13:03:12;;;;;;;6.22;5.72;;;7.40;98.20;;;;;;5130094;27;20195;-65
2022/01/14 13:05:37;;;;;;;9.07;5.90;;;7.50;98.10;;;;;;5130583;27;20655;-65
2022/01/14 13:08:35;;;;;;;6.83;5.77;;;7.60;98.10;;;;;;5129177;27;20170;-65
2022/01/14 13:11:05;;;;;;;7.65;6.50;;;7.60;98.20;;;;;;5130280;28;20280;-67
2022/01/14 13:13:31;;;;;;;8.55;6.43;;;7.70;98.50;;;;;;5124497;28;20178;-65
2022/01/14 13:16:05;;;;;;;8.88;6.65;;;7.80;98.20;;;;;;5116818;28;20529;-66
2022/01/14 13:18:54;;;;;;;8.05;6.53;;;7.80;97.60;;;;;;5114989;28;20251;-68
2022/01/14 13:21:25;;;;;;;8.35;7.40;;;7.80;97.60;;;;;;5116283;28;20254;-67
2022/01/14 13:23:54;;;;;;;8.77;6.13;;;7.80;97.60;;;;;;5116544;28;20174;-67
2022/01/14 13:26:23;;;;;;;6.68;4.97;;;7.80;97.70;;;;;;5116414;28;20185;-67
2022/01/14 13:29:22;;;;;;;5.90;5.30;;;7.90;97.80;;;;;;5116881;28;20167;-66